New Horizon — WKWB — position and weather

sailwx.info

Track history (hours):
 
Tides and Currents Weather Stations Pressure Air Temp Water Temp Dewpoint Dewpoint Depression Visibility Wind Speed Wind Dir Waves Ship Positions

Oceanographic research ship New Horizon (USA)

Detailed information on ship capabilities available from University of Delaware's Ocean Information Center.

Owner: Bold Horizon, LLC., Annapolis, MD. More information available from US FCC via Universal Licensing System and Coast Guard Vessel Documentation Center.

Last reported at 2019-Feb-19 16:49 UTC. Time now 2019-Apr-18 10:51 UTC.
Position N 32°42' W 117°09'.
Warning: this ship's position is 57 days out of date.

Type: Other ship. MMSI: 303273000.

Date/timePositionNaut miles runAvg speedWind from/ knotsBaromVisibWave heightAir tempDewpointWater temp
2019-Feb-19 16:49N 32°42' W 117°09'0 0.0
2019-Feb-19 16:29N 32°42' W 117°09'0 0.0
2019-Feb-19 15:50N 32°42' W 117°09'0 0.0
2019-Feb-19 15:27N 32°42' W 117°09'0 0.1
2019-Feb-19 14:51N 32°42' W 117°09'2 6.9
2019-Feb-19 14:30N 32°43' W 117°12'5 9.4
2019-Feb-19 14:00N 32°39' W 117°14'3 6.7
2019-Feb-19 13:30N 32°38' W 117°18'4 8.9
2019-Feb-19 13:00N 32°41' W 117°22'4 9.0
2019-Feb-19 12:30N 32°44' W 117°26'4 9.0
2019-Feb-19 12:01N 32°46' W 117°30'4 8.8
2019-Feb-19 11:30N 32°49' W 117°34'4 8.8
2019-Feb-19 11:00N 32°51' W 117°39'4 8.6
2019-Feb-19 10:31N 32°53' W 117°43'4 8.7
2019-Feb-19 10:00N 32°55' W 117°48'4 8.7
2019-Feb-19 09:30N 32°57' W 117°53'4 8.6
2019-Feb-19 09:01N 32°59' W 117°57'4 8.8
2019-Feb-19 08:30N 33°02' W 118°01'4 8.7
2019-Feb-19 08:00N 33°04' W 118°06'4 8.7
2019-Feb-19 07:31N 33°06' W 118°10'7 8.6
2019-Feb-19 06:40N 33°10' W 118°18'5 8.8
2019-Feb-19 06:04N 33°12' W 118°23'1 8.6
2019-Feb-19 05:57N 33°13' W 118°24'13 9.2
2019-Feb-19 04:30N 33°20' W 118°38'9 9.4
2019-Feb-19 03:35N 33°25' W 118°46'1 9.9
2019-Feb-19 03:30N 33°25' W 118°47'5 9.8
2019-Feb-19 03:00N 33°28' W 118°52'510.9
2019-Feb-19 02:30N 33°31' W 118°57'611.1
2019-Feb-19 02:00N 33°34' W 119°03'510.8
2019-Feb-19 01:30N 33°36' W 119°09'510.9
2019-Feb-19 01:00N 33°39' W 119°14'511.1
2019-Feb-19 00:31N 33°42' W 119°20'610.9
2019-Feb-19 00:00N 33°44' W 119°26'510.8
2019-Feb-18 23:31N 33°47' W 119°32'510.7
2019-Feb-18 23:00N 33°49' W 119°38'510.8
2019-Feb-18 22:31N 33°52' W 119°43'611.1
2019-Feb-18 21:59N 33°55' W 119°49'510.7
2019-Feb-18 21:31N 33°58' W 119°54'611.9
2019-Feb-18 21:00N 34°03' W 119°58'611.0
2019-Feb-18 20:29N 34°08' W 120°02'510.7
2019-Feb-18 20:00N 34°11' W 120°07'510.7
2019-Feb-18 19:30N 34°14' W 120°12'510.6
2019-Feb-18 19:00N 34°17' W 120°17'5 9.5
2019-Feb-18 18:30N 34°20' W 120°21'511.0
2019-Feb-18 18:01N 34°22' W 120°28'510.8
2019-Feb-18 17:30N 34°23' W 120°34'510.7
2019-Feb-18 17:00N 34°26' W 120°40'510.7
2019-Feb-18 16:31N 34°29' W 120°45'510.9
2019-Feb-18 16:01N 34°33' W 120°49'510.8
2019-Feb-18 15:30N 34°38' W 120°53'510.7
2019-Feb-18 15:00N 34°43' W 120°56'510.9
2019-Feb-18 14:30N 34°47' W 120°59'510.7
2019-Feb-18 14:00N 34°52' W 121°02'510.6
2019-Feb-18 13:30N 34°56' W 121°05'510.6
2019-Feb-18 13:00N 35°01' W 121°08'510.8
2019-Feb-18 12:31N 35°06' W 121°12'510.7
2019-Feb-18 12:01N 35°10' W 121°15'510.6
2019-Feb-18 11:30N 35°15' W 121°18'12010.7
2019-Feb-18 00:19N 37°02' W 122°25'511.0
2019-Feb-17 23:51N 37°06' W 122°28'411.1
2019-Feb-17 23:28N 37°10' W 122°30'511.0
2019-Feb-17 23:00N 37°15' W 122°32'610.9
2019-Feb-17 22:30N 37°20' W 122°35'611.4
2019-Feb-17 22:00N 37°25' W 122°37'611.6
2019-Feb-17 21:31N 37°31' W 122°40'611.4
2019-Feb-17 21:00N 37°36' W 122°42'511.0
2019-Feb-17 20:31N 37°41' W 122°44'4 8.4
2019-Feb-17 20:01N 37°46' W 122°43'4 7.8
2019-Feb-17 19:31N 37°46' W 122°38'4 8.6
2019-Feb-17 19:01N 37°48' W 122°33'5 9.4
2019-Feb-17 18:31N 37°49' W 122°28'5 9.2
2019-Feb-17 18:00N 37°48' W 122°22'3 7.0
2019-Feb-17 17:31N 37°48' W 122°18'0 0.4
2019-Feb-17 17:00N 37°47' W 122°17'0 0.0
2019-Feb-17 16:29N 37°47' W 122°17'0 0.0
2019-Feb-17 15:59N 37°47' W 122°17'0 0.0
2019-Feb-17 15:29N 37°47' W 122°17'0 0.0
2019-Feb-17 14:59N 37°47' W 122°17'0 0.0
2019-Feb-17 14:29N 37°47' W 122°17'0 0.0
2019-Feb-17 13:59N 37°47' W 122°17'0 0.0
2019-Feb-17 13:29N 37°47' W 122°17'0 0.0
2019-Feb-17 12:59N 37°47' W 122°17'0 0.0
2019-Feb-17 12:29N 37°47' W 122°17'0 0.0
2019-Feb-17 11:59N 37°47' W 122°17'0 0.0
2019-Feb-17 11:29N 37°47' W 122°17'0 0.0
2019-Feb-17 10:59N 37°47' W 122°17'0 0.0
2019-Feb-17 10:29N 37°47' W 122°17'0 0.0
2019-Feb-17 09:59N 37°47' W 122°17'0 0.0
2019-Feb-17 09:29N 37°47' W 122°17'0 0.0
2019-Feb-17 08:59N 37°47' W 122°17'0 0.0
2019-Feb-17 08:29N 37°47' W 122°17'0 0.0
2019-Feb-17 07:59N 37°47' W 122°17'0 0.0
2019-Feb-17 07:29N 37°47' W 122°17'0 0.0
2019-Feb-17 06:59N 37°47' W 122°17'0 0.0
2019-Feb-17 06:29N 37°47' W 122°17'0 0.0
2019-Feb-17 05:59N 37°47' W 122°17'0 0.0
2019-Feb-17 05:29N 37°47' W 122°17'0 0.0
2019-Feb-17 04:59N 37°47' W 122°17'0 0.0
2019-Feb-17 04:29N 37°47' W 122°17'0 0.0
2019-Feb-17 03:59N 37°47' W 122°17'0 0.0
2019-Feb-17 03:29N 37°47' W 122°17'0 0.0
2019-Feb-17 02:59N 37°47' W 122°17'0 0.0
2019-Feb-17 02:29N 37°47' W 122°17'0 0.0
2019-Feb-17 01:59N 37°47' W 122°17'0 0.0
2019-Feb-17 01:29N 37°47' W 122°17'0 0.0
2019-Feb-17 00:59N 37°47' W 122°17'0 0.0
2019-Feb-17 00:29N 37°47' W 122°17'0 0.0
2019-Feb-17 00:01N 37°47' W 122°17'0 0.0
2019-Feb-16 23:30N 37°47' W 122°17'0 0.0
2019-Feb-16 23:01N 37°47' W 122°17'0 0.0
2019-Feb-16 22:31N 37°47' W 122°17'0 0.0
2019-Feb-16 22:00N 37°47' W 122°17'0 0.0
2019-Feb-16 21:30N 37°47' W 122°17'0 0.0
2019-Feb-16 21:01N 37°47' W 122°17'0 0.0
2019-Feb-16 20:31N 37°47' W 122°17'0 0.0
2019-Feb-16 20:01N 37°47' W 122°17'0 0.0
2019-Feb-16 19:30N 37°47' W 122°17'0 0.0
2019-Feb-16 19:00N 37°47' W 122°17'0 0.0
2019-Feb-16 18:22N 37°47' W 122°17'0 0.0
2019-Feb-16 17:58N 37°47' W 122°17'0 0.0
2019-Feb-16 17:28N 37°47' W 122°17'0 0.0
2019-Feb-16 16:58N 37°47' W 122°17'0 0.0
2019-Feb-16 16:28N 37°47' W 122°17'0 0.0
2019-Feb-16 15:58N 37°47' W 122°17'0 0.0
2019-Feb-16 15:28N 37°47' W 122°17'0 0.0
2019-Feb-16 14:58N 37°47' W 122°17'0 0.0
2019-Feb-16 14:28N 37°47' W 122°17'0 0.0
2019-Feb-16 13:58N 37°47' W 122°17'0 0.0
2019-Feb-16 13:28N 37°47' W 122°17'0 0.0
2019-Feb-16 12:58N 37°47' W 122°17'0 0.0
2019-Feb-16 12:28N 37°47' W 122°17'0 0.0
2019-Feb-16 11:58N 37°47' W 122°17'0 0.0
2019-Feb-16 11:28N 37°47' W 122°17'0 0.0
2019-Feb-16 10:58N 37°47' W 122°17'0 0.0
2019-Feb-16 10:28N 37°47' W 122°17'0 0.0
2019-Feb-16 09:58N 37°47' W 122°17'0 0.0
2019-Feb-16 09:28N 37°47' W 122°17'0 0.0
2019-Feb-16 08:58N 37°47' W 122°17'0 0.0
2019-Feb-16 08:28N 37°47' W 122°17'0 0.0
2019-Feb-16 07:58N 37°47' W 122°17'0 0.0
2019-Feb-16 07:31N 37°47' W 122°17'0 0.0
2019-Feb-16 06:58N 37°47' W 122°17'0 0.0
2019-Feb-16 06:28N 37°47' W 122°17'0 0.0
2019-Feb-16 06:00N 37°47' W 122°17'0 0.0
2019-Feb-16 05:30N 37°47' W 122°17'0 0.0
2019-Feb-16 05:00N 37°47' W 122°17'0 0.0
2019-Feb-16 04:30N 37°47' W 122°17'0 0.0
2019-Feb-16 04:00N 37°47' W 122°17'0 0.0
2019-Feb-16 03:27N 37°47' W 122°17'0 0.0
2019-Feb-16 03:00N 37°47' W 122°17'0 0.0
2019-Feb-16 02:27N 37°47' W 122°17'0 0.0
2019-Feb-16 02:00N 37°47' W 122°17'0 0.0
2019-Feb-16 01:30N 37°47' W 122°17'0 0.0
2019-Feb-16 01:00N 37°47' W 122°17'0 0.0
2019-Feb-16 00:30N 37°47' W 122°17'0 0.0
2019-Feb-16 00:00N 37°47' W 122°17'0 0.0
2019-Feb-15 23:30N 37°47' W 122°17'0 0.0
2019-Feb-15 23:00N 37°47' W 122°17'0 0.0
2019-Feb-15 22:30N 37°47' W 122°17'0 0.0
2019-Feb-15 22:00N 37°47' W 122°17'0 0.0
2019-Feb-15 21:30N 37°47' W 122°17'0 0.0
2019-Feb-15 21:00N 37°47' W 122°17'0 0.0
2019-Feb-15 20:30N 37°47' W 122°17'0 0.0
2019-Feb-15 20:00N 37°47' W 122°17'0 0.0
2019-Feb-15 19:30N 37°47' W 122°17'0 0.0
2019-Feb-15 19:00N 37°47' W 122°17'0 0.0
2019-Feb-15 18:30N 37°47' W 122°17'0 0.0
2019-Feb-15 18:00N 37°47' W 122°17'0 0.0
2019-Feb-15 17:30N 37°47' W 122°17'0 0.0
2019-Feb-15 17:00N 37°47' W 122°17'0 0.0
2019-Feb-15 16:27N 37°47' W 122°17'0 0.0
2019-Feb-15 16:00N 37°47' W 122°17'0 0.0
2019-Feb-15 15:30N 37°47' W 122°17'0 0.0
2019-Feb-15 14:57N 37°47' W 122°17'0 0.0
2019-Feb-15 14:30N 37°47' W 122°17'0 0.0
2019-Feb-15 14:00N 37°47' W 122°17'0 0.0
2019-Feb-15 13:30N 37°47' W 122°17'0 0.0
2019-Feb-15 13:00N 37°47' W 122°17'0 0.0
2019-Feb-15 12:30N 37°47' W 122°17'0 0.0
2019-Feb-15 12:00N 37°47' W 122°17'0 0.0
2019-Feb-15 11:30N 37°47' W 122°17'0 0.0
2019-Feb-15 11:00N 37°47' W 122°17'0 0.0
2019-Feb-15 10:30N 37°47' W 122°17'0 0.0
2019-Feb-15 10:00N 37°47' W 122°17'0 0.0
2019-Feb-15 09:30N 37°47' W 122°17'0 0.0
2019-Feb-15 09:00N 37°47' W 122°17'0 0.0
2019-Feb-15 08:27N 37°47' W 122°17'0 0.0
2019-Feb-15 08:00N 37°47' W 122°17'0 0.0
2019-Feb-15 07:30N 37°47' W 122°17'0 0.0
2019-Feb-15 06:57N 37°47' W 122°17'0 0.0
2019-Feb-15 06:30N 37°47' W 122°17'0 0.0
2019-Feb-15 05:57N 37°47' W 122°17'0 0.0
2019-Feb-15 05:30N 37°47' W 122°17'0 0.0
2019-Feb-15 05:00N 37°47' W 122°17'0 0.0
2019-Feb-15 04:30N 37°47' W 122°17'0 0.0
2019-Feb-15 04:00N 37°47' W 122°17'0 0.0
2019-Feb-15 03:30N 37°47' W 122°17'0 0.0
2019-Feb-15 03:00N 37°47' W 122°17'0 0.0
2019-Feb-15 02:30N 37°47' W 122°17'0 0.0
2019-Feb-15 02:01N 37°47' W 122°17'0 0.0
2019-Feb-15 01:31N 37°47' W 122°17'0 0.0
2019-Feb-15 01:00N 37°47' W 122°17'  
Track history (hours):
 
Tides and Currents Weather Stations Pressure Air Temp Water Temp Dewpoint Dewpoint Depression Visibility Wind Speed Wind Dir Waves Ship Positions

Oceanographic research ship New Horizon (USA)

Detailed information on ship capabilities available from University of Delaware's Ocean Information Center.

Owner: Bold Horizon, LLC., Annapolis, MD. More information available from US FCC via Universal Licensing System and Coast Guard Vessel Documentation Center.

Last reported at 2019-Feb-19 16:49 UTC. Time now 2019-Apr-18 10:51 UTC.
Position N 32°42' W 117°09'.
Warning: this ship's position is 57 days out of date.

Type: Other ship. MMSI: 303273000.

Date/timePositionNaut miles runAvg speedWind from/ knotsBaromVisibWave heightAir tempDewpointWater temp
2019-Feb-19 16:49N 32°42' W 117°09'0 0.0
2019-Feb-19 16:29N 32°42' W 117°09'0 0.0
2019-Feb-19 15:50N 32°42' W 117°09'0 0.0
2019-Feb-19 15:27N 32°42' W 117°09'0 0.1
2019-Feb-19 14:51N 32°42' W 117°09'2 6.9
2019-Feb-19 14:30N 32°43' W 117°12'5 9.4
2019-Feb-19 14:00N 32°39' W 117°14'3 6.7
2019-Feb-19 13:30N 32°38' W 117°18'4 8.9
2019-Feb-19 13:00N 32°41' W 117°22'4 9.0
2019-Feb-19 12:30N 32°44' W 117°26'4 9.0
2019-Feb-19 12:01N 32°46' W 117°30'4 8.8
2019-Feb-19 11:30N 32°49' W 117°34'4 8.8
2019-Feb-19 11:00N 32°51' W 117°39'4 8.6
2019-Feb-19 10:31N 32°53' W 117°43'4 8.7
2019-Feb-19 10:00N 32°55' W 117°48'4 8.7
2019-Feb-19 09:30N 32°57' W 117°53'4 8.6
2019-Feb-19 09:01N 32°59' W 117°57'4 8.8
2019-Feb-19 08:30N 33°02' W 118°01'4 8.7
2019-Feb-19 08:00N 33°04' W 118°06'4 8.7
2019-Feb-19 07:31N 33°06' W 118°10'7 8.6
2019-Feb-19 06:40N 33°10' W 118°18'5 8.8
2019-Feb-19 06:04N 33°12' W 118°23'1 8.6
2019-Feb-19 05:57N 33°13' W 118°24'13 9.2
2019-Feb-19 04:30N 33°20' W 118°38'9 9.4
2019-Feb-19 03:35N 33°25' W 118°46'1 9.9
2019-Feb-19 03:30N 33°25' W 118°47'5 9.8
2019-Feb-19 03:00N 33°28' W 118°52'510.9
2019-Feb-19 02:30N 33°31' W 118°57'611.1
2019-Feb-19 02:00N 33°34' W 119°03'510.8
2019-Feb-19 01:30N 33°36' W 119°09'510.9
2019-Feb-19 01:00N 33°39' W 119°14'511.1
2019-Feb-19 00:31N 33°42' W 119°20'610.9
2019-Feb-19 00:00N 33°44' W 119°26'510.8
2019-Feb-18 23:31N 33°47' W 119°32'510.7
2019-Feb-18 23:00N 33°49' W 119°38'510.8
2019-Feb-18 22:31N 33°52' W 119°43'611.1
2019-Feb-18 21:59N 33°55' W 119°49'510.7
2019-Feb-18 21:31N 33°58' W 119°54'611.9
2019-Feb-18 21:00N 34°03' W 119°58'611.0
2019-Feb-18 20:29N 34°08' W 120°02'510.7
2019-Feb-18 20:00N 34°11' W 120°07'510.7
2019-Feb-18 19:30N 34°14' W 120°12'510.6
2019-Feb-18 19:00N 34°17' W 120°17'5 9.5
2019-Feb-18 18:30N 34°20' W 120°21'511.0
2019-Feb-18 18:01N 34°22' W 120°28'510.8
2019-Feb-18 17:30N 34°23' W 120°34'510.7
2019-Feb-18 17:00N 34°26' W 120°40'510.7
2019-Feb-18 16:31N 34°29' W 120°45'510.9
2019-Feb-18 16:01N 34°33' W 120°49'510.8
2019-Feb-18 15:30N 34°38' W 120°53'510.7
2019-Feb-18 15:00N 34°43' W 120°56'510.9
2019-Feb-18 14:30N 34°47' W 120°59'510.7
2019-Feb-18 14:00N 34°52' W 121°02'510.6
2019-Feb-18 13:30N 34°56' W 121°05'510.6
2019-Feb-18 13:00N 35°01' W 121°08'510.8
2019-Feb-18 12:31N 35°06' W 121°12'510.7
2019-Feb-18 12:01N 35°10' W 121°15'510.6
2019-Feb-18 11:30N 35°15' W 121°18'12010.7
2019-Feb-18 00:19N 37°02' W 122°25'511.0
2019-Feb-17 23:51N 37°06' W 122°28'411.1
2019-Feb-17 23:28N 37°10' W 122°30'511.0
2019-Feb-17 23:00N 37°15' W 122°32'610.9
2019-Feb-17 22:30N 37°20' W 122°35'611.4
2019-Feb-17 22:00N 37°25' W 122°37'611.6
2019-Feb-17 21:31N 37°31' W 122°40'611.4
2019-Feb-17 21:00N 37°36' W 122°42'511.0
2019-Feb-17 20:31N 37°41' W 122°44'4 8.4
2019-Feb-17 20:01N 37°46' W 122°43'4 7.8
2019-Feb-17 19:31N 37°46' W 122°38'4 8.6
2019-Feb-17 19:01N 37°48' W 122°33'5 9.4
2019-Feb-17 18:31N 37°49' W 122°28'5 9.2
2019-Feb-17 18:00N 37°48' W 122°22'3 7.0
2019-Feb-17 17:31N 37°48' W 122°18'0 0.4
2019-Feb-17 17:00N 37°47' W 122°17'0 0.0
2019-Feb-17 16:29N 37°47' W 122°17'0 0.0
2019-Feb-17 15:59N 37°47' W 122°17'0 0.0
2019-Feb-17 15:29N 37°47' W 122°17'0 0.0
2019-Feb-17 14:59N 37°47' W 122°17'0 0.0
2019-Feb-17 14:29N 37°47' W 122°17'0 0.0
2019-Feb-17 13:59N 37°47' W 122°17'0 0.0
2019-Feb-17 13:29N 37°47' W 122°17'0 0.0
2019-Feb-17 12:59N 37°47' W 122°17'0 0.0
2019-Feb-17 12:29N 37°47' W 122°17'0 0.0
2019-Feb-17 11:59N 37°47' W 122°17'0 0.0
2019-Feb-17 11:29N 37°47' W 122°17'0 0.0
2019-Feb-17 10:59N 37°47' W 122°17'0 0.0
2019-Feb-17 10:29N 37°47' W 122°17'0 0.0
2019-Feb-17 09:59N 37°47' W 122°17'0 0.0
2019-Feb-17 09:29N 37°47' W 122°17'0 0.0
2019-Feb-17 08:59N 37°47' W 122°17'0 0.0
2019-Feb-17 08:29N 37°47' W 122°17'0 0.0
2019-Feb-17 07:59N 37°47' W 122°17'0 0.0
2019-Feb-17 07:29N 37°47' W 122°17'0 0.0
2019-Feb-17 06:59N 37°47' W 122°17'0 0.0
2019-Feb-17 06:29N 37°47' W 122°17'0 0.0
2019-Feb-17 05:59N 37°47' W 122°17'0 0.0
2019-Feb-17 05:29N 37°47' W 122°17'0 0.0
2019-Feb-17 04:59N 37°47' W 122°17'0 0.0
2019-Feb-17 04:29N 37°47' W 122°17'0 0.0
2019-Feb-17 03:59N 37°47' W 122°17'0 0.0
2019-Feb-17 03:29N 37°47' W 122°17'0 0.0
2019-Feb-17 02:59N 37°47' W 122°17'0 0.0
2019-Feb-17 02:29N 37°47' W 122°17'0 0.0
2019-Feb-17 01:59N 37°47' W 122°17'0 0.0
2019-Feb-17 01:29N 37°47' W 122°17'0 0.0
2019-Feb-17 00:59N 37°47' W 122°17'0 0.0
2019-Feb-17 00:29N 37°47' W 122°17'0 0.0
2019-Feb-17 00:01N 37°47' W 122°17'0 0.0
2019-Feb-16 23:30N 37°47' W 122°17'0 0.0
2019-Feb-16 23:01N 37°47' W 122°17'0 0.0
2019-Feb-16 22:31N 37°47' W 122°17'0 0.0
2019-Feb-16 22:00N 37°47' W 122°17'0 0.0
2019-Feb-16 21:30N 37°47' W 122°17'0 0.0
2019-Feb-16 21:01N 37°47' W 122°17'0 0.0
2019-Feb-16 20:31N 37°47' W 122°17'0 0.0
2019-Feb-16 20:01N 37°47' W 122°17'0 0.0
2019-Feb-16 19:30N 37°47' W 122°17'0 0.0
2019-Feb-16 19:00N 37°47' W 122°17'0 0.0
2019-Feb-16 18:22N 37°47' W 122°17'0 0.0
2019-Feb-16 17:58N 37°47' W 122°17'0 0.0
2019-Feb-16 17:28N 37°47' W 122°17'0 0.0
2019-Feb-16 16:58N 37°47' W 122°17'0 0.0
2019-Feb-16 16:28N 37°47' W 122°17'0 0.0
2019-Feb-16 15:58N 37°47' W 122°17'0 0.0
2019-Feb-16 15:28N 37°47' W 122°17'0 0.0
2019-Feb-16 14:58N 37°47' W 122°17'0 0.0
2019-Feb-16 14:28N 37°47' W 122°17'0 0.0
2019-Feb-16 13:58N 37°47' W 122°17'0 0.0
2019-Feb-16 13:28N 37°47' W 122°17'0 0.0
2019-Feb-16 12:58N 37°47' W 122°17'0 0.0
2019-Feb-16 12:28N 37°47' W 122°17'0 0.0
2019-Feb-16 11:58N 37°47' W 122°17'0 0.0
2019-Feb-16 11:28N 37°47' W 122°17'0 0.0
2019-Feb-16 10:58N 37°47' W 122°17'0 0.0
2019-Feb-16 10:28N 37°47' W 122°17'0 0.0
2019-Feb-16 09:58N 37°47' W 122°17'0 0.0
2019-Feb-16 09:28N 37°47' W 122°17'0 0.0
2019-Feb-16 08:58N 37°47' W 122°17'0 0.0
2019-Feb-16 08:28N 37°47' W 122°17'0 0.0
2019-Feb-16 07:58N 37°47' W 122°17'0 0.0
2019-Feb-16 07:31N 37°47' W 122°17'0 0.0
2019-Feb-16 06:58N 37°47' W 122°17'0 0.0
2019-Feb-16 06:28N 37°47' W 122°17'0 0.0
2019-Feb-16 06:00N 37°47' W 122°17'0 0.0
2019-Feb-16 05:30N 37°47' W 122°17'0 0.0
2019-Feb-16 05:00N 37°47' W 122°17'0 0.0
2019-Feb-16 04:30N 37°47' W 122°17'0 0.0
2019-Feb-16 04:00N 37°47' W 122°17'0 0.0
2019-Feb-16 03:27N 37°47' W 122°17'0 0.0
2019-Feb-16 03:00N 37°47' W 122°17'0 0.0
2019-Feb-16 02:27N 37°47' W 122°17'0 0.0
2019-Feb-16 02:00N 37°47' W 122°17'0 0.0
2019-Feb-16 01:30N 37°47' W 122°17'0 0.0
2019-Feb-16 01:00N 37°47' W 122°17'0 0.0
2019-Feb-16 00:30N 37°47' W 122°17'0 0.0
2019-Feb-16 00:00N 37°47' W 122°17'0 0.0
2019-Feb-15 23:30N 37°47' W 122°17'0 0.0
2019-Feb-15 23:00N 37°47' W 122°17'0 0.0
2019-Feb-15 22:30N 37°47' W 122°17'0 0.0
2019-Feb-15 22:00N 37°47' W 122°17'0 0.0
2019-Feb-15 21:30N 37°47' W 122°17'0 0.0
2019-Feb-15 21:00N 37°47' W 122°17'0 0.0
2019-Feb-15 20:30N 37°47' W 122°17'0 0.0
2019-Feb-15 20:00N 37°47' W 122°17'0 0.0
2019-Feb-15 19:30N 37°47' W 122°17'0 0.0
2019-Feb-15 19:00N 37°47' W 122°17'0 0.0
2019-Feb-15 18:30N 37°47' W 122°17'0 0.0
2019-Feb-15 18:00N 37°47' W 122°17'0 0.0
2019-Feb-15 17:30N 37°47' W 122°17'0 0.0
2019-Feb-15 17:00N 37°47' W 122°17'0 0.0
2019-Feb-15 16:27N 37°47' W 122°17'0 0.0
2019-Feb-15 16:00N 37°47' W 122°17'0 0.0
2019-Feb-15 15:30N 37°47' W 122°17'0 0.0
2019-Feb-15 14:57N 37°47' W 122°17'0 0.0
2019-Feb-15 14:30N 37°47' W 122°17'0 0.0
2019-Feb-15 14:00N 37°47' W 122°17'0 0.0
2019-Feb-15 13:30N 37°47' W 122°17'0 0.0
2019-Feb-15 13:00N 37°47' W 122°17'0 0.0
2019-Feb-15 12:30N 37°47' W 122°17'0 0.0
2019-Feb-15 12:00N 37°47' W 122°17'0 0.0
2019-Feb-15 11:30N 37°47' W 122°17'0 0.0
2019-Feb-15 11:00N 37°47' W 122°17'0 0.0
2019-Feb-15 10:30N 37°47' W 122°17'0 0.0
2019-Feb-15 10:00N 37°47' W 122°17'0 0.0
2019-Feb-15 09:30N 37°47' W 122°17'0 0.0
2019-Feb-15 09:00N 37°47' W 122°17'0 0.0
2019-Feb-15 08:27N 37°47' W 122°17'0 0.0
2019-Feb-15 08:00N 37°47' W 122°17'0 0.0
2019-Feb-15 07:30N 37°47' W 122°17'0 0.0
2019-Feb-15 06:57N 37°47' W 122°17'0 0.0
2019-Feb-15 06:30N 37°47' W 122°17'0 0.0
2019-Feb-15 05:57N 37°47' W 122°17'0 0.0
2019-Feb-15 05:30N 37°47' W 122°17'0 0.0
2019-Feb-15 05:00N 37°47' W 122°17'0 0.0
2019-Feb-15 04:30N 37°47' W 122°17'0 0.0
2019-Feb-15 04:00N 37°47' W 122°17'0 0.0
2019-Feb-15 03:30N 37°47' W 122°17'0 0.0
2019-Feb-15 03:00N 37°47' W 122°17'0 0.0
2019-Feb-15 02:30N 37°47' W 122°17'0 0.0
2019-Feb-15 02:01N 37°47' W 122°17'0 0.0
2019-Feb-15 01:31N 37°47' W 122°17'0 0.0
2019-Feb-15 01:00N 37°47' W 122°17'  

Dump ship's entire track history